createdAt,value
2022-08-26T00:00:20.118Z,2.30
2022-08-26T00:02:48.298Z,1.73
2022-08-26T00:05:16.842Z,2.00
2022-08-26T00:07:47.776Z,1.95
2022-08-26T00:10:17.921Z,2.13
2022-08-26T00:12:46.349Z,1.90
2022-08-26T00:15:18.630Z,2.08
2022-08-26T00:17:47.121Z,2.30
2022-08-26T00:20:23.567Z,1.85
2022-08-26T00:22:53.343Z,2.20
2022-08-26T00:25:22.676Z,2.00
2022-08-26T00:27:51.531Z,2.10
2022-08-26T00:30:24.621Z,1.65
2022-08-26T00:32:56.246Z,1.90
2022-08-26T00:35:27.971Z,2.38
2022-08-26T00:37:58.853Z,1.98
2022-08-26T00:40:31.538Z,2.38
2022-08-26T00:43:00.771Z,1.92
2022-08-26T00:45:30.569Z,1.88
2022-08-26T00:48:04.708Z,2.28
2022-08-26T00:50:36.237Z,2.00
2022-08-26T00:53:21.455Z,2.17
2022-08-26T00:55:58.402Z,2.00
2022-08-26T00:58:29.223Z,2.08
2022-08-26T01:00:57.520Z,2.17
2022-08-26T01:03:29.020Z,1.90
2022-08-26T01:05:59.900Z,2.00
2022-08-26T01:08:30.077Z,2.00
2022-08-26T01:10:59.792Z,1.90
2022-08-26T01:13:29.558Z,2.00
2022-08-26T01:16:02.690Z,1.80
2022-08-26T01:18:31.529Z,1.80
2022-08-26T01:21:08.622Z,1.90
2022-08-26T01:23:42.833Z,2.05
2022-08-26T01:26:19.733Z,1.83
2022-08-26T01:28:51.779Z,1.48
2022-08-26T01:31:23.838Z,1.75
2022-08-26T01:34:00.740Z,1.70
2022-08-26T01:36:29.527Z,1.90
2022-08-26T01:38:59.259Z,1.88
2022-08-26T01:41:29.161Z,1.70
2022-08-26T01:43:58.987Z,1.65
2022-08-26T01:46:29.765Z,2.20
2022-08-26T01:49:03.733Z,1.73
2022-08-26T01:51:37.037Z,1.60
2022-08-26T01:54:11.984Z,1.58
2022-08-26T01:56:42.267Z,1.75
2022-08-26T01:59:15.068Z,1.75
2022-08-26T02:01:43.697Z,1.60
2022-08-26T02:04:21.296Z,1.63
2022-08-26T02:06:50.701Z,1.50
2022-08-26T02:09:22.055Z,1.42
2022-08-26T02:11:51.187Z,1.38
2022-08-26T02:14:23.996Z,2.10
2022-08-26T02:16:56.254Z,2.13
2022-08-26T02:19:31.196Z,1.90
2022-08-26T02:22:04.181Z,1.60
2022-08-26T02:24:50.550Z,1.65
2022-08-26T02:27:22.894Z,1.95
2022-08-26T02:29:56.636Z,1.77
2022-08-26T02:32:25.726Z,1.73
2022-08-26T02:34:55.413Z,1.80
2022-08-26T02:37:24.123Z,1.65
2022-08-26T02:39:54.953Z,1.70
2022-08-26T02:42:23.341Z,1.77
2022-08-26T02:44:51.797Z,1.85
2022-08-26T02:47:20.116Z,2.00
2022-08-26T02:49:53.435Z,2.15
2022-08-26T02:52:22.193Z,1.80
2022-08-26T02:54:50.461Z,1.67
2022-08-26T02:57:20.673Z,1.50
2022-08-26T02:59:50.516Z,1.60
2022-08-26T03:02:19.005Z,2.08
2022-08-26T03:04:57.787Z,1.80
2022-08-26T03:07:30.639Z,1.60
2022-08-26T03:10:00.674Z,1.80
2022-08-26T03:12:30.255Z,1.65
2022-08-26T03:14:58.592Z,1.60
2022-08-26T03:17:26.903Z,1.88
2022-08-26T03:19:57.363Z,1.75
2022-08-26T03:22:26.285Z,1.50
2022-08-26T03:24:55.510Z,1.58
2022-08-26T03:27:23.776Z,1.58
2022-08-26T03:30:19.524Z,1.65
2022-08-26T03:32:48.258Z,1.38
2022-08-26T03:35:16.774Z,2.10
2022-08-26T03:37:44.932Z,1.65
2022-08-26T03:40:14.094Z,1.60
2022-08-26T03:42:45.310Z,1.58
2022-08-26T03:45:16.949Z,1.60
2022-08-26T03:47:46.054Z,1.77
2022-08-26T03:50:18.355Z,1.60
2022-08-26T03:52:52.424Z,1.88
2022-08-26T03:55:23.606Z,1.77
2022-08-26T03:57:52.130Z,1.40
2022-08-26T04:00:22.183Z,1.70
2022-08-26T04:02:53.486Z,1.60
2022-08-26T04:05:23.591Z,1.75
2022-08-26T04:07:53.042Z,1.52
2022-08-26T04:10:28.939Z,1.30
2022-08-26T04:12:58.943Z,1.58
2022-08-26T04:15:29.517Z,1.50
2022-08-26T04:17:57.785Z,1.48
2022-08-26T04:20:26.401Z,1.77
2022-08-26T04:22:55.008Z,1.83
2022-08-26T04:25:24.183Z,1.58
2022-08-26T04:27:52.963Z,1.35
2022-08-26T04:30:21.903Z,1.55
2022-08-26T04:32:51.818Z,1.65
2022-08-26T04:35:25.601Z,1.60
2022-08-26T04:37:55.487Z,1.90
2022-08-26T04:40:24.179Z,1.77
2022-08-26T04:42:54.602Z,2.08
2022-08-26T04:45:23.080Z,1.67
2022-08-26T04:47:56.712Z,1.80
2022-08-26T04:50:26.778Z,1.73
2022-08-26T04:52:55.597Z,2.00
2022-08-26T04:55:38.232Z,1.73
2022-08-26T04:58:10.443Z,1.65
2022-08-26T05:00:39.849Z,1.75
2022-08-26T05:03:10.705Z,1.40
2022-08-26T05:05:41.392Z,1.77
2022-08-26T05:08:11.373Z,1.35
2022-08-26T05:10:44.158Z,1.73
2022-08-26T05:13:15.519Z,1.85
2022-08-26T05:15:45.253Z,1.63
2022-08-26T05:18:20.028Z,1.55
2022-08-26T05:20:54.018Z,1.48
2022-08-26T05:23:25.598Z,1.83
2022-08-26T05:26:23.132Z,1.58
2022-08-26T05:29:01.587Z,1.80
2022-08-26T05:31:37.556Z,1.30
2022-08-26T05:34:08.655Z,1.50
2022-08-26T05:36:38.881Z,1.38
2022-08-26T05:39:10.359Z,1.70
2022-08-26T05:41:44.783Z,1.70
2022-08-26T05:44:16.450Z,1.40
2022-08-26T06:03:00.256Z,1.70
2022-08-26T06:05:31.791Z,1.40
2022-08-26T06:11:32.474Z,1.80
2022-08-26T06:14:04.568Z,1.80
2022-08-26T06:19:17.646Z,1.73
2022-08-26T06:21:54.125Z,1.70
2022-08-26T06:51:27.082Z,1.33
2022-08-26T06:53:59.732Z,1.63
2022-08-26T06:56:38.777Z,1.83
2022-08-26T06:59:11.008Z,1.63
2022-08-26T07:01:45.834Z,1.40
2022-08-26T07:04:21.906Z,1.17
2022-08-26T07:06:56.215Z,1.20
2022-08-26T07:09:38.007Z,1.23
2022-08-26T07:12:10.815Z,1.50
2022-08-26T07:14:41.631Z,1.80
2022-08-26T07:17:16.122Z,1.40
2022-08-26T07:22:39.561Z,1.40
2022-08-26T07:33:14.086Z,1.20
2022-08-26T07:35:44.487Z,1.40
2022-08-26T07:38:14.277Z,1.20
2022-08-26T07:40:42.805Z,1.42
2022-08-26T07:43:11.445Z,1.23
2022-08-26T07:45:40.606Z,1.30
2022-08-26T07:48:08.813Z,1.23
2022-08-26T07:50:49.549Z,1.20
2022-08-26T07:53:19.930Z,0.90
2022-08-26T07:55:49.267Z,1.35
2022-08-26T07:58:19.177Z,1.05
2022-08-26T08:00:47.805Z,1.10
2022-08-26T08:03:16.644Z,1.30
2022-08-26T08:05:46.415Z,1.20
2022-08-26T08:08:26.929Z,1.55
2022-08-26T08:10:58.671Z,1.10
2022-08-26T08:13:28.071Z,1.08
2022-08-26T08:15:56.279Z,1.05
2022-08-26T08:18:24.521Z,1.20
2022-08-26T08:20:59.163Z,1.17
2022-08-26T08:23:34.021Z,1.23
2022-08-26T08:26:06.051Z,1.30
2022-08-26T08:28:36.527Z,1.23
2022-08-26T08:31:05.308Z,0.80
2022-08-26T08:33:35.013Z,1.05
2022-08-26T08:36:03.773Z,0.85
2022-08-26T08:38:32.630Z,1.00
2022-08-26T08:41:00.958Z,0.80
2022-08-26T08:43:41.516Z,0.80
2022-08-26T08:46:14.921Z,1.00
2022-08-26T08:48:48.669Z,1.08
2022-08-26T08:51:26.277Z,0.90
2022-08-26T09:05:25.502Z,1.30
2022-08-26T09:13:27.385Z,1.10
2022-08-26T09:16:08.327Z,0.85
2022-08-26T09:19:05.783Z,1.00
2022-08-26T09:21:36.118Z,1.15
2022-08-26T09:24:05.146Z,0.82
2022-08-26T09:26:48.006Z,0.80
2022-08-26T09:29:27.053Z,0.82
2022-08-26T09:32:20.249Z,1.00
2022-08-26T09:35:31.002Z,1.00
2022-08-26T09:38:01.385Z,0.85
2022-08-26T09:40:35.168Z,1.00
2022-08-26T09:43:22.756Z,1.45
2022-08-26T09:45:59.293Z,1.00
2022-08-26T09:48:36.101Z,1.17
2022-08-26T09:51:09.340Z,0.75
2022-08-26T09:53:56.464Z,0.95
2022-08-26T09:56:29.395Z,1.67
2022-08-26T09:58:58.864Z,1.50
2022-08-26T10:01:34.971Z,1.90
2022-08-26T10:04:09.913Z,1.67
2022-08-26T10:06:44.435Z,1.27
2022-08-26T10:09:19.514Z,1.23
2022-08-26T10:11:53.950Z,1.15
2022-08-26T10:14:27.510Z,0.82
2022-08-26T10:17:02.955Z,0.90
2022-08-26T10:19:41.788Z,0.90
2022-08-26T10:22:42.023Z,1.10
2022-08-26T10:25:21.205Z,1.02
2022-08-26T10:27:56.327Z,0.90
2022-08-26T10:30:30.728Z,1.20
2022-08-26T10:33:05.322Z,1.20
2022-08-26T10:35:36.896Z,1.10
2022-08-26T10:38:12.893Z,1.30
2022-08-26T10:40:53.402Z,1.52
2022-08-26T10:43:28.448Z,1.70
2022-08-26T10:46:06.975Z,1.25
2022-08-26T10:48:46.416Z,1.98
2022-08-26T10:51:20.005Z,1.23
2022-08-26T10:54:36.790Z,1.50
2022-08-26T10:57:17.763Z,1.75
2022-08-26T11:03:33.038Z,1.38
2022-08-26T11:06:37.095Z,1.50
2022-08-26T11:09:08.632Z,1.70
2022-08-26T11:11:57.776Z,1.55
2022-08-26T11:14:53.352Z,2.20
2022-08-26T11:18:14.433Z,1.90
2022-08-26T11:20:45.955Z,1.95
2022-08-26T11:23:50.709Z,1.90
2022-08-26T11:26:55.410Z,1.60
2022-08-26T11:30:02.688Z,1.42
2022-08-26T11:32:50.975Z,1.92
2022-08-26T11:35:52.259Z,1.73
2022-08-26T11:38:26.805Z,1.67
2022-08-26T11:41:08.934Z,1.65
2022-08-26T11:43:39.349Z,1.70
2022-08-26T11:46:12.941Z,1.77
2022-08-26T11:48:43.488Z,1.52
2022-08-26T11:51:14.517Z,1.85
2022-08-26T11:53:47.228Z,1.92
2022-08-26T11:56:25.788Z,1.70
2022-08-26T11:58:58.512Z,1.50
2022-08-26T12:01:31.537Z,1.42
2022-08-26T12:04:01.145Z,1.98
2022-08-26T12:06:32.647Z,1.77
2022-08-26T12:09:05.464Z,1.85
2022-08-26T12:11:39.083Z,1.83
2022-08-26T12:14:16.285Z,1.60
2022-08-26T12:16:46.181Z,1.50
2022-08-26T12:19:27.428Z,1.70
2022-08-26T12:22:00.460Z,1.75
2022-08-26T12:24:29.449Z,1.52
2022-08-26T12:27:16.847Z,1.73
2022-08-26T12:29:48.403Z,1.58
2022-08-26T12:32:19.588Z,1.67
2022-08-26T12:34:50.075Z,2.25
2022-08-26T12:37:19.724Z,1.80
2022-08-26T12:39:49.248Z,1.67
2022-08-26T12:42:42.101Z,1.48
2022-08-26T12:45:11.500Z,1.42
2022-08-26T12:47:44.344Z,1.55
2022-08-26T12:50:19.902Z,1.70
2022-08-26T12:52:59.854Z,1.65
2022-08-26T12:55:40.584Z,1.50
2022-08-26T12:58:24.968Z,1.38
2022-08-26T13:00:56.965Z,1.33
2022-08-26T13:03:48.743Z,1.52
2022-08-26T13:06:27.913Z,1.50
2022-08-26T13:08:59.002Z,1.50
2022-08-26T13:11:30.471Z,1.52
2022-08-26T13:14:01.928Z,1.48
2022-08-26T13:16:31.375Z,2.08
2022-08-26T13:19:04.980Z,1.30
2022-08-26T13:21:37.648Z,1.80
2022-08-26T13:24:11.748Z,1.58
2022-08-26T13:26:40.832Z,1.30
2022-08-26T13:29:10.503Z,2.10
2022-08-26T13:31:41.816Z,1.20
2022-08-26T13:34:15.142Z,1.60
2022-08-26T13:36:43.902Z,1.38
2022-08-26T13:39:13.039Z,1.60
2022-08-26T13:41:42.280Z,1.48
2022-08-26T13:44:11.844Z,1.75
2022-08-26T13:46:40.843Z,1.30
2022-08-26T13:49:19.914Z,1.38
2022-08-26T13:51:48.127Z,1.10
2022-08-26T13:54:16.560Z,1.60
2022-08-26T13:56:45.152Z,1.60
2022-08-26T13:59:13.379Z,1.50
2022-08-26T14:01:41.863Z,1.52
2022-08-26T14:04:10.065Z,1.88
2022-08-26T14:06:39.733Z,1.73
2022-08-26T14:09:08.047Z,1.80
2022-08-26T14:11:50.866Z,1.40
2022-08-26T14:14:23.258Z,1.92
2022-08-26T14:16:59.315Z,1.98
2022-08-26T14:19:30.174Z,1.70
2022-08-26T14:22:01.432Z,1.92
2022-08-26T14:24:29.901Z,1.50
2022-08-26T14:26:58.565Z,1.40
2022-08-26T14:29:26.827Z,1.35
2022-08-26T14:31:56.627Z,1.50
2022-08-26T14:34:28.662Z,2.00
2022-08-26T14:36:56.816Z,1.80
2022-08-26T14:39:26.397Z,1.88
2022-08-26T14:41:57.431Z,1.60
2022-08-26T14:44:30.709Z,1.52
2022-08-26T14:47:03.555Z,2.33
2022-08-26T14:49:32.205Z,2.08
2022-08-26T14:52:00.511Z,1.83
2022-08-26T14:54:29.549Z,2.20
2022-08-26T14:57:03.558Z,1.80
2022-08-26T14:59:35.022Z,1.75
2022-08-26T15:02:03.831Z,1.50
2022-08-26T15:04:32.565Z,2.08
2022-08-26T15:07:03.214Z,2.00
2022-08-26T15:09:37.762Z,1.67
2022-08-26T15:12:07.138Z,1.75
2022-08-26T15:14:35.388Z,1.70
2022-08-26T15:17:03.670Z,1.83
2022-08-26T15:19:32.064Z,1.60
2022-08-26T15:22:00.316Z,1.88
2022-08-26T15:24:29.695Z,1.40
2022-08-26T15:26:59.468Z,1.58
2022-08-26T15:29:30.644Z,1.80
2022-08-26T15:32:01.488Z,1.73
2022-08-26T15:34:29.856Z,1.80
2022-08-26T15:36:58.119Z,1.50
2022-08-26T15:39:26.537Z,1.70
2022-08-26T15:41:56.121Z,1.83
2022-08-26T15:44:27.325Z,1.50
2022-08-26T15:46:58.611Z,1.98
2022-08-26T15:49:28.070Z,1.65
2022-08-26T15:51:56.373Z,1.85
2022-08-26T15:54:25.420Z,1.63
2022-08-26T15:56:54.174Z,1.58
2022-08-26T15:59:23.214Z,1.73
2022-08-26T16:01:53.817Z,2.13
2022-08-26T16:04:22.446Z,2.20
2022-08-26T16:06:52.379Z,2.00
2022-08-26T16:09:30.194Z,1.60
2022-08-26T16:11:59.919Z,1.45
2022-08-26T16:14:28.744Z,1.92
2022-08-26T16:16:58.568Z,2.10
2022-08-26T16:19:26.828Z,2.03
2022-08-26T16:21:55.216Z,1.65
2022-08-26T16:24:28.436Z,2.15
2022-08-26T16:26:58.733Z,2.17
2022-08-26T16:29:27.482Z,2.00
2022-08-26T16:31:57.477Z,2.55
2022-08-26T16:34:26.337Z,2.55
2022-08-26T16:36:55.067Z,2.03
2022-08-26T16:39:23.596Z,2.08
2022-08-26T16:41:51.939Z,2.17
2022-08-26T16:44:22.064Z,2.10
2022-08-26T16:46:50.585Z,2.20
2022-08-26T16:49:28.561Z,1.90
2022-08-26T16:51:57.137Z,2.30
2022-08-26T16:54:25.720Z,1.75
2022-08-26T16:56:54.617Z,1.65
2022-08-26T16:59:23.447Z,1.52
2022-08-26T17:01:52.941Z,1.60
2022-08-26T17:04:22.445Z,2.17
2022-08-26T17:06:52.911Z,1.98
2022-08-26T17:09:21.705Z,1.58
2022-08-26T17:11:51.136Z,1.95
2022-08-26T17:14:21.028Z,1.70
2022-08-26T17:16:51.469Z,2.30
2022-08-26T17:19:21.318Z,2.00
2022-08-26T17:22:14.084Z,1.77
2022-08-26T17:24:43.867Z,1.77
2022-08-26T17:30:16.740Z,1.85
2022-08-26T17:33:10.873Z,1.80
2022-08-26T17:35:43.642Z,1.60
2022-08-26T17:38:18.051Z,2.20
2022-08-26T17:40:54.455Z,2.17
2022-08-26T17:43:22.745Z,2.10
2022-08-26T17:46:06.918Z,2.05
2022-08-26T17:48:37.279Z,2.40
2022-08-26T17:51:09.413Z,2.15
2022-08-26T17:53:42.326Z,2.58
2022-08-26T17:56:13.259Z,2.38
2022-08-26T17:58:51.436Z,2.58
2022-08-26T18:01:21.427Z,2.45
2022-08-26T18:03:57.855Z,2.17
2022-08-26T18:06:32.917Z,2.83
2022-08-26T18:09:05.556Z,2.05
2022-08-26T18:11:39.423Z,2.42
2022-08-26T18:14:10.409Z,2.35
2022-08-26T18:16:43.079Z,2.63
2022-08-26T18:19:11.560Z,2.58
2022-08-26T18:25:47.800Z,2.30
2022-08-26T18:28:38.660Z,2.88
2022-08-26T18:43:06.727Z,2.72
2022-08-26T18:57:03.104Z,2.67
2022-08-26T18:59:32.773Z,2.67
2022-08-26T19:02:01.672Z,2.83
2022-08-26T19:04:30.136Z,3.03
2022-08-26T19:14:14.501Z,2.50
2022-08-26T19:16:48.006Z,2.67
2022-08-26T19:19:17.273Z,2.95
2022-08-26T19:21:47.354Z,2.53
2022-08-26T19:24:18.358Z,2.85
2022-08-26T19:26:57.758Z,2.65
2022-08-26T19:29:33.314Z,2.63
2022-08-26T19:32:03.695Z,2.70
2022-08-26T19:34:32.267Z,2.40
2022-08-26T19:37:42.325Z,3.40
2022-08-26T19:40:15.006Z,3.30
2022-08-26T19:42:45.659Z,2.75
2022-08-26T19:48:36.698Z,2.78
2022-08-26T19:51:15.052Z,2.65
2022-08-26T19:53:58.398Z,3.20
2022-08-26T19:57:07.579Z,3.13
2022-08-26T20:00:10.461Z,3.30
2022-08-26T20:06:51.790Z,3.00
2022-08-26T20:10:16.202Z,3.10
2022-08-26T20:13:24.584Z,3.75
2022-08-26T20:16:00.716Z,3.05
2022-08-26T20:19:03.596Z,3.15
2022-08-26T20:22:20.194Z,3.17
2022-08-26T20:24:55.148Z,3.28
2022-08-26T20:27:38.632Z,3.63
2022-08-26T20:30:42.373Z,3.25
2022-08-26T20:33:31.942Z,4.25
2022-08-26T20:43:21.605Z,5.22
2022-08-26T20:46:03.978Z,5.07
2022-08-26T20:48:37.339Z,5.13
2022-08-26T20:51:31.413Z,5.10
2022-08-26T20:54:02.007Z,4.57
2022-08-26T20:56:43.095Z,4.03
2022-08-26T20:59:21.075Z,4.28
2022-08-26T21:02:06.318Z,3.78
2022-08-26T21:07:10.451Z,3.83
2022-08-26T21:09:44.187Z,3.50
2022-08-26T21:15:25.897Z,3.22
2022-08-26T21:17:54.727Z,3.17
2022-08-26T21:20:28.679Z,3.65
2022-08-26T21:26:10.290Z,3.58
2022-08-26T22:20:18.161Z,3.80
2022-08-26T22:22:46.350Z,4.35
2022-08-26T22:25:15.949Z,3.60
2022-08-26T22:27:44.163Z,3.80
2022-08-26T22:30:13.338Z,3.20
2022-08-26T22:32:42.131Z,3.50
2022-08-26T22:35:29.123Z,3.60
2022-08-26T22:37:58.853Z,3.55
2022-08-26T22:40:28.548Z,3.58
2022-08-26T22:42:58.781Z,3.65
2022-08-26T22:45:29.294Z,3.40
2022-08-26T22:47:58.518Z,3.20
2022-08-26T22:50:27.460Z,3.10
2022-08-26T22:52:55.628Z,2.95
2022-08-26T22:55:23.922Z,3.83
2022-08-26T22:57:53.601Z,3.30
2022-08-26T23:00:21.989Z,3.63
2022-08-26T23:03:01.272Z,3.90
2022-08-26T23:05:29.698Z,3.60
2022-08-26T23:07:58.002Z,3.88
2022-08-26T23:10:26.850Z,3.80
2022-08-26T23:12:56.639Z,3.50
2022-08-26T23:15:25.106Z,4.10
2022-08-26T23:17:58.384Z,4.30
2022-08-26T23:20:37.854Z,4.50
2022-08-26T23:23:06.522Z,4.63
2022-08-26T23:25:35.327Z,6.15
2022-08-26T23:28:05.443Z,6.20
2022-08-26T23:30:34.901Z,6.25
2022-08-26T23:33:03.231Z,5.95
2022-08-26T23:35:30.593Z,5.10
2022-08-26T23:37:59.243Z,5.00
2022-08-26T23:40:32.006Z,4.75
2022-08-26T23:43:04.252Z,4.70
2022-08-26T23:45:35.334Z,4.28
2022-08-26T23:48:04.403Z,4.45
2022-08-26T23:50:59.338Z,4.80
2022-08-26T23:53:27.547Z,4.90
2022-08-26T23:55:56.284Z,4.95
2022-08-26T23:58:24.474Z,4.68
